sensor_id;sensor_type;location;lat;lon;timestamp;P1;durP1;ratioP1;P2;durP2;ratioP2
53313;SDS011;39202;51.468;7.146;2023-02-01T00:02:56;0.77;;;0.77;;
53313;SDS011;39202;51.468;7.146;2023-02-01T00:07:58;0.70;;;0.70;;
53313;SDS011;39202;51.468;7.146;2023-02-01T00:13:01;0.60;;;0.60;;
53313;SDS011;39202;51.468;7.146;2023-02-01T00:18:03;0.63;;;0.63;;
53313;SDS011;39202;51.468;7.146;2023-02-01T00:23:05;0.70;;;0.70;;
53313;SDS011;39202;51.468;7.146;2023-02-01T00:28:09;0.70;;;0.70;;
53313;SDS011;39202;51.468;7.146;2023-02-01T00:33:12;0.70;;;0.70;;
53313;SDS011;39202;51.468;7.146;2023-02-01T00:38:14;0.70;;;0.70;;
53313;SDS011;39202;51.468;7.146;2023-02-01T00:43:17;0.68;;;0.68;;
53313;SDS011;39202;51.468;7.146;2023-02-01T00:48:19;0.60;;;0.60;;
53313;SDS011;39202;51.468;7.146;2023-02-01T00:53:21;0.55;;;0.55;;
53313;SDS011;39202;51.468;7.146;2023-02-01T00:58:24;0.70;;;0.70;;
53313;SDS011;39202;51.468;7.146;2023-02-01T01:03:26;0.70;;;0.70;;
53313;SDS011;39202;51.468;7.146;2023-02-01T01:08:29;0.65;;;0.65;;
53313;SDS011;39202;51.468;7.146;2023-02-01T01:13:32;0.60;;;0.60;;
53313;SDS011;39202;51.468;7.146;2023-02-01T01:18:34;0.70;;;0.70;;
53313;SDS011;39202;51.468;7.146;2023-02-01T01:23:37;0.80;;;0.80;;
53313;SDS011;39202;51.468;7.146;2023-02-01T01:28:40;0.68;;;0.68;;
53313;SDS011;39202;51.468;7.146;2023-02-01T01:33:41;0.70;;;0.70;;
53313;SDS011;39202;51.468;7.146;2023-02-01T01:38:44;0.70;;;0.70;;
53313;SDS011;39202;51.468;7.146;2023-02-01T01:43:49;0.63;;;0.63;;
53313;SDS011;39202;51.468;7.146;2023-02-01T01:48:54;0.55;;;0.55;;
53313;SDS011;39202;51.468;7.146;2023-02-01T01:54:02;0.80;;;0.80;;
53313;SDS011;39202;51.468;7.146;2023-02-01T01:59:09;0.77;;;0.73;;
53313;SDS011;39202;51.468;7.146;2023-02-01T02:04:11;0.80;;;0.80;;
53313;SDS011;39202;51.468;7.146;2023-02-01T02:09:13;0.60;;;0.60;;
53313;SDS011;39202;51.468;7.146;2023-02-01T02:14:17;0.70;;;0.70;;
53313;SDS011;39202;51.468;7.146;2023-02-01T02:19:25;0.70;;;0.70;;
53313;SDS011;39202;51.468;7.146;2023-02-01T02:35:53;0.60;;;0.60;;
53313;SDS011;39202;51.468;7.146;2023-02-01T02:41:03;0.55;;;0.55;;
53313;SDS011;39202;51.468;7.146;2023-02-01T02:46:35;0.60;;;0.60;;
53313;SDS011;39202;51.468;7.146;2023-02-01T02:51:59;0.80;;;0.80;;
53313;SDS011;39202;51.468;7.146;2023-02-01T02:57:26;0.57;;;0.57;;
53313;SDS011;39202;51.468;7.146;2023-02-01T03:02:48;0.63;;;0.63;;
53313;SDS011;39202;51.468;7.146;2023-02-01T03:08:11;0.50;;;0.50;;
53313;SDS011;39202;51.468;7.146;2023-02-01T03:13:16;0.60;;;0.60;;
53313;SDS011;39202;51.468;7.146;2023-02-01T03:18:24;0.70;;;0.70;;
53313;SDS011;39202;51.468;7.146;2023-02-01T03:23:33;0.63;;;0.63;;
53313;SDS011;39202;51.468;7.146;2023-02-01T03:28:37;0.60;;;0.60;;
53313;SDS011;39202;51.468;7.146;2023-02-01T03:33:44;0.60;;;0.60;;
53313;SDS011;39202;51.468;7.146;2023-02-01T03:38:48;0.60;;;0.60;;
53313;SDS011;39202;51.468;7.146;2023-02-01T03:43:55;0.60;;;0.60;;
53313;SDS011;39202;51.468;7.146;2023-02-01T03:49:02;0.70;;;0.70;;
53313;SDS011;39202;51.468;7.146;2023-02-01T03:54:09;0.65;;;0.65;;
53313;SDS011;39202;51.468;7.146;2023-02-01T03:59:14;0.52;;;0.52;;
53313;SDS011;39202;51.468;7.146;2023-02-01T04:04:16;0.75;;;0.75;;
53313;SDS011;39202;51.468;7.146;2023-02-01T04:09:22;0.60;;;0.60;;
53313;SDS011;39202;51.468;7.146;2023-02-01T04:14:23;0.60;;;0.60;;
53313;SDS011;39202;51.468;7.146;2023-02-01T04:19:25;0.50;;;0.50;;
53313;SDS011;39202;51.468;7.146;2023-02-01T04:24:28;1.02;;;0.60;;
53313;SDS011;39202;51.468;7.146;2023-02-01T04:29:30;0.63;;;0.63;;
53313;SDS011;39202;51.468;7.146;2023-02-01T04:34:31;0.70;;;0.70;;
53313;SDS011;39202;51.468;7.146;2023-02-01T04:39:35;0.50;;;0.50;;
53313;SDS011;39202;51.468;7.146;2023-02-01T04:44:36;0.60;;;0.60;;
53313;SDS011;39202;51.468;7.146;2023-02-01T04:49:39;0.50;;;0.50;;
53313;SDS011;39202;51.468;7.146;2023-02-01T04:54:42;0.60;;;0.60;;
53313;SDS011;39202;51.468;7.146;2023-02-01T04:59:44;0.70;;;0.70;;
53313;SDS011;39202;51.468;7.146;2023-02-01T05:04:45;0.52;;;0.52;;
53313;SDS011;39202;51.468;7.146;2023-02-01T05:09:49;0.50;;;0.50;;
53313;SDS011;39202;51.468;7.146;2023-02-01T05:14:51;0.50;;;0.50;;
53313;SDS011;39202;51.468;7.146;2023-02-01T05:19:52;0.70;;;0.70;;
53313;SDS011;39202;51.468;7.146;2023-02-01T05:24:55;0.70;;;0.70;;
53313;SDS011;39202;51.468;7.146;2023-02-01T05:29:57;0.70;;;0.70;;
53313;SDS011;39202;51.468;7.146;2023-02-01T05:34:59;0.70;;;0.70;;
53313;SDS011;39202;51.468;7.146;2023-02-01T05:40:03;0.77;;;0.77;;
53313;SDS011;39202;51.468;7.146;2023-02-01T05:45:05;0.60;;;0.60;;
53313;SDS011;39202;51.468;7.146;2023-02-01T05:50:08;0.70;;;0.70;;
53313;SDS011;39202;51.468;7.146;2023-02-01T05:55:11;0.60;;;0.60;;
53313;SDS011;39202;51.468;7.146;2023-02-01T06:00:13;0.75;;;0.75;;
53313;SDS011;39202;51.468;7.146;2023-02-01T06:05:15;0.75;;;0.75;;
53313;SDS011;39202;51.468;7.146;2023-02-01T06:10:19;0.70;;;0.70;;
53313;SDS011;39202;51.468;7.146;2023-02-01T06:15:21;0.60;;;0.60;;
53313;SDS011;39202;51.468;7.146;2023-02-01T06:20:22;0.80;;;0.80;;
53313;SDS011;39202;51.468;7.146;2023-02-01T06:25:26;0.60;;;0.60;;
53313;SDS011;39202;51.468;7.146;2023-02-01T06:30:27;0.80;;;0.80;;
53313;SDS011;39202;51.468;7.146;2023-02-01T06:35:30;0.60;;;0.60;;
53313;SDS011;39202;51.468;7.146;2023-02-01T06:40:33;0.98;;;0.68;;
53313;SDS011;39202;51.468;7.146;2023-02-01T06:45:35;0.73;;;0.70;;
53313;SDS011;39202;51.468;7.146;2023-02-01T06:50:37;0.63;;;0.63;;
53313;SDS011;39202;51.468;7.146;2023-02-01T06:55:40;0.70;;;0.70;;
53313;SDS011;39202;51.468;7.146;2023-02-01T07:00:41;0.73;;;0.70;;
53313;SDS011;39202;51.468;7.146;2023-02-01T07:05:43;0.98;;;0.88;;
53313;SDS011;39202;51.468;7.146;2023-02-01T07:10:46;4.40;;;1.45;;
53313;SDS011;39202;51.468;7.146;2023-02-01T07:15:48;4.28;;;1.80;;
53313;SDS011;39202;51.468;7.146;2023-02-01T07:20:50;3.20;;;1.67;;
53313;SDS011;39202;51.468;7.146;2023-02-01T07:25:57;2.80;;;1.50;;
53313;SDS011;39202;51.468;7.146;2023-02-01T07:31:03;3.78;;;1.70;;
53313;SDS011;39202;51.468;7.146;2023-02-01T07:36:06;1.33;;;1.23;;
53313;SDS011;39202;51.468;7.146;2023-02-01T07:41:12;2.13;;;1.33;;
53313;SDS011;39202;51.468;7.146;2023-02-01T07:46:14;1.95;;;1.15;;
53313;SDS011;39202;51.468;7.146;2023-02-01T07:51:16;1.63;;;1.30;;
53313;SDS011;39202;51.468;7.146;2023-02-01T07:56:20;1.88;;;1.48;;
53313;SDS011;39202;51.468;7.146;2023-02-01T08:01:23;1.83;;;1.27;;
53313;SDS011;39202;51.468;7.146;2023-02-01T08:06:27;2.33;;;1.42;;
53313;SDS011;39202;51.468;7.146;2023-02-01T08:11:32;1.85;;;1.25;;
53313;SDS011;39202;51.468;7.146;2023-02-01T08:16:34;1.73;;;1.30;;
53313;SDS011;39202;51.468;7.146;2023-02-01T08:21:37;1.33;;;1.00;;
53313;SDS011;39202;51.468;7.146;2023-02-01T08:26:40;2.45;;;1.27;;
53313;SDS011;39202;51.468;7.146;2023-02-01T08:31:42;2.03;;;1.35;;
53313;SDS011;39202;51.468;7.146;2023-02-01T08:36:44;2.83;;;1.42;;
53313;SDS011;39202;51.468;7.146;2023-02-01T08:41:47;2.42;;;1.33;;
53313;SDS011;39202;51.468;7.146;2023-02-01T08:47:09;3.88;;;1.75;;
53313;SDS011;39202;51.468;7.146;2023-02-01T08:52:11;2.53;;;1.55;;
53313;SDS011;39202;51.468;7.146;2023-02-01T08:57:14;2.92;;;1.80;;
53313;SDS011;39202;51.468;7.146;2023-02-01T09:02:16;3.33;;;1.77;;
53313;SDS011;39202;51.468;7.146;2023-02-01T09:07:18;2.78;;;1.35;;
53313;SDS011;39202;51.468;7.146;2023-02-01T09:12:22;2.22;;;1.60;;
53313;SDS011;39202;51.468;7.146;2023-02-01T09:17:23;1.80;;;1.52;;
53313;SDS011;39202;51.468;7.146;2023-02-01T09:22:25;1.98;;;1.50;;
53313;SDS011;39202;51.468;7.146;2023-02-01T09:27:28;2.08;;;1.48;;
53313;SDS011;39202;51.468;7.146;2023-02-01T09:32:30;2.08;;;1.55;;
53313;SDS011;39202;51.468;7.146;2023-02-01T09:37:32;2.25;;;1.40;;
53313;SDS011;39202;51.468;7.146;2023-02-01T09:48:02;2.58;;;1.60;;
53313;SDS011;39202;51.468;7.146;2023-02-01T09:53:15;1.88;;;1.40;;
53313;SDS011;39202;51.468;7.146;2023-02-01T09:58:24;1.80;;;1.45;;
53313;SDS011;39202;51.468;7.146;2023-02-01T10:03:32;3.10;;;1.35;;
53313;SDS011;39202;51.468;7.146;2023-02-01T10:08:38;1.30;;;1.20;;
53313;SDS011;39202;51.468;7.146;2023-02-01T10:13:56;1.88;;;1.35;;
53313;SDS011;39202;51.468;7.146;2023-02-01T10:19:08;1.60;;;1.50;;
53313;SDS011;39202;51.468;7.146;2023-02-01T10:24:25;2.75;;;1.50;;
53313;SDS011;39202;51.468;7.146;2023-02-01T10:29:38;2.17;;;1.35;;
53313;SDS011;39202;51.468;7.146;2023-02-01T10:34:42;1.58;;;1.30;;
53313;SDS011;39202;51.468;7.146;2023-02-01T10:39:47;1.63;;;1.30;;
53313;SDS011;39202;51.468;7.146;2023-02-01T10:44:52;2.53;;;1.55;;
53313;SDS011;39202;51.468;7.146;2023-02-01T10:50:00;1.85;;;1.40;;
53313;SDS011;39202;51.468;7.146;2023-02-01T10:55:28;1.88;;;1.33;;
53313;SDS011;39202;51.468;7.146;2023-02-01T11:00:36;1.40;;;1.10;;
53313;SDS011;39202;51.468;7.146;2023-02-01T11:05:43;3.55;;;1.52;;
53313;SDS011;39202;51.468;7.146;2023-02-01T11:10:47;1.17;;;0.93;;
53313;SDS011;39202;51.468;7.146;2023-02-01T11:15:59;1.92;;;1.30;;
53313;SDS011;39202;51.468;7.146;2023-02-01T11:21:03;1.42;;;1.13;;
53313;SDS011;39202;51.468;7.146;2023-02-01T11:26:11;1.63;;;1.30;;
53313;SDS011;39202;51.468;7.146;2023-02-01T11:31:16;1.45;;;1.15;;
53313;SDS011;39202;51.468;7.146;2023-02-01T11:36:20;1.38;;;1.02;;
53313;SDS011;39202;51.468;7.146;2023-02-01T11:41:26;1.00;;;1.00;;
53313;SDS011;39202;51.468;7.146;2023-02-01T11:46:30;1.40;;;1.30;;
53313;SDS011;39202;51.468;7.146;2023-02-01T11:51:40;1.63;;;1.20;;
53313;SDS011;39202;51.468;7.146;2023-02-01T11:56:50;1.15;;;1.10;;
53313;SDS011;39202;51.468;7.146;2023-02-01T12:02:19;1.05;;;0.98;;
53313;SDS011;39202;51.468;7.146;2023-02-01T12:07:40;1.17;;;1.10;;
53313;SDS011;39202;51.468;7.146;2023-02-01T12:12:53;1.52;;;1.38;;
53313;SDS011;39202;51.468;7.146;2023-02-01T12:18:08;1.10;;;1.00;;
53313;SDS011;39202;51.468;7.146;2023-02-01T12:23:31;1.10;;;1.00;;
53313;SDS011;39202;51.468;7.146;2023-02-01T12:28:47;1.17;;;1.08;;
53313;SDS011;39202;51.468;7.146;2023-02-01T12:34:13;1.30;;;1.20;;
53313;SDS011;39202;51.468;7.146;2023-02-01T12:39:26;0.90;;;0.90;;
53313;SDS011;39202;51.468;7.146;2023-02-01T12:44:35;1.52;;;1.30;;
53313;SDS011;39202;51.468;7.146;2023-02-01T12:49:46;1.25;;;1.15;;
53313;SDS011;39202;51.468;7.146;2023-02-01T12:54:54;1.45;;;1.35;;
53313;SDS011;39202;51.468;7.146;2023-02-01T13:00:02;1.10;;;0.95;;
53313;SDS011;39202;51.468;7.146;2023-02-01T13:05:18;1.50;;;1.10;;
53313;SDS011;39202;51.468;7.146;2023-02-01T13:10:24;1.33;;;1.20;;
53313;SDS011;39202;51.468;7.146;2023-02-01T13:15:33;2.15;;;1.20;;
53313;SDS011;39202;51.468;7.146;2023-02-01T13:20:43;1.10;;;1.00;;
53313;SDS011;39202;51.468;7.146;2023-02-01T13:25:49;0.88;;;0.88;;
53313;SDS011;39202;51.468;7.146;2023-02-01T13:30:57;1.83;;;1.40;;
53313;SDS011;39202;51.468;7.146;2023-02-01T13:36:30;2.17;;;1.40;;
53313;SDS011;39202;51.468;7.146;2023-02-01T13:41:50;1.75;;;1.10;;
53313;SDS011;39202;51.468;7.146;2023-02-01T13:46:56;1.52;;;1.40;;
53313;SDS011;39202;51.468;7.146;2023-02-01T13:52:06;3.10;;;1.20;;
53313;SDS011;39202;51.468;7.146;2023-02-01T13:57:31;2.08;;;1.30;;
53313;SDS011;39202;51.468;7.146;2023-02-01T14:02:47;1.88;;;1.33;;
53313;SDS011;39202;51.468;7.146;2023-02-01T14:08:10;2.00;;;1.30;;
53313;SDS011;39202;51.468;7.146;2023-02-01T14:13:20;2.10;;;1.20;;
53313;SDS011;39202;51.468;7.146;2023-02-01T14:18:48;1.08;;;1.08;;
53313;SDS011;39202;51.468;7.146;2023-02-01T14:24:00;1.30;;;1.20;;
53313;SDS011;39202;51.468;7.146;2023-02-01T14:29:09;1.00;;;1.00;;
53313;SDS011;39202;51.468;7.146;2023-02-01T14:34:26;1.88;;;1.13;;
53313;SDS011;39202;51.468;7.146;2023-02-01T14:39:54;1.65;;;1.10;;
53313;SDS011;39202;51.468;7.146;2023-02-01T14:50:36;2.35;;;1.25;;
53313;SDS011;39202;51.468;7.146;2023-02-01T14:55:43;2.55;;;1.48;;
53313;SDS011;39202;51.468;7.146;2023-02-01T15:00:50;1.40;;;1.13;;
53313;SDS011;39202;51.468;7.146;2023-02-01T15:05:57;1.65;;;1.17;;
53313;SDS011;39202;51.468;7.146;2023-02-01T15:11:02;1.30;;;1.13;;
53313;SDS011;39202;51.468;7.146;2023-02-01T15:16:13;1.77;;;1.30;;
53313;SDS011;39202;51.468;7.146;2023-02-01T15:21:17;1.02;;;0.93;;
53313;SDS011;39202;51.468;7.146;2023-02-01T15:26:28;1.40;;;1.20;;
53313;SDS011;39202;51.468;7.146;2023-02-01T15:31:32;2.63;;;1.50;;
53313;SDS011;39202;51.468;7.146;2023-02-01T15:36:35;1.23;;;1.10;;
53313;SDS011;39202;51.468;7.146;2023-02-01T15:41:39;1.25;;;1.00;;
53313;SDS011;39202;51.468;7.146;2023-02-01T15:46:44;1.10;;;1.00;;
53313;SDS011;39202;51.468;7.146;2023-02-01T15:51:48;1.00;;;1.00;;
53313;SDS011;39202;51.468;7.146;2023-02-01T15:56:53;1.25;;;1.00;;
53313;SDS011;39202;51.468;7.146;2023-02-01T16:01:56;1.25;;;1.15;;
53313;SDS011;39202;51.468;7.146;2023-02-01T16:06:58;0.85;;;0.85;;
53313;SDS011;39202;51.468;7.146;2023-02-01T16:12:18;0.80;;;0.80;;
53313;SDS011;39202;51.468;7.146;2023-02-01T16:17:25;0.95;;;0.80;;
53313;SDS011;39202;51.468;7.146;2023-02-01T16:22:26;1.10;;;0.98;;
53313;SDS011;39202;51.468;7.146;2023-02-01T16:27:29;1.77;;;0.80;;
53313;SDS011;39202;51.468;7.146;2023-02-01T16:32:31;0.90;;;0.90;;
53313;SDS011;39202;51.468;7.146;2023-02-01T16:37:33;0.90;;;0.85;;
53313;SDS011;39202;51.468;7.146;2023-02-01T16:42:37;0.85;;;0.73;;
53313;SDS011;39202;51.468;7.146;2023-02-01T16:47:39;1.42;;;1.00;;
53313;SDS011;39202;51.468;7.146;2023-02-01T16:52:46;1.40;;;0.90;;
53313;SDS011;39202;51.468;7.146;2023-02-01T16:57:49;1.10;;;1.00;;
53313;SDS011;39202;51.468;7.146;2023-02-01T17:02:52;0.98;;;0.98;;
53313;SDS011;39202;51.468;7.146;2023-02-01T17:07:54;1.15;;;0.85;;
53313;SDS011;39202;51.468;7.146;2023-02-01T17:12:59;1.10;;;0.90;;
53313;SDS011;39202;51.468;7.146;2023-02-01T17:18:01;0.90;;;0.80;;
53313;SDS011;39202;51.468;7.146;2023-02-01T17:23:04;1.00;;;0.80;;
53313;SDS011;39202;51.468;7.146;2023-02-01T17:28:08;1.00;;;1.00;;
53313;SDS011;39202;51.468;7.146;2023-02-01T17:33:12;0.70;;;0.65;;
53313;SDS011;39202;51.468;7.146;2023-02-01T17:38:21;0.70;;;0.70;;
53313;SDS011;39202;51.468;7.146;2023-02-01T17:43:24;0.70;;;0.70;;
53313;SDS011;39202;51.468;7.146;2023-02-01T17:48:26;0.70;;;0.70;;
53313;SDS011;39202;51.468;7.146;2023-02-01T17:53:28;0.82;;;0.82;;
53313;SDS011;39202;51.468;7.146;2023-02-01T17:58:32;0.70;;;0.70;;
53313;SDS011;39202;51.468;7.146;2023-02-01T18:03:33;0.80;;;0.80;;
53313;SDS011;39202;51.468;7.146;2023-02-01T18:08:35;1.15;;;0.90;;
53313;SDS011;39202;51.468;7.146;2023-02-01T18:13:39;0.70;;;0.70;;
53313;SDS011;39202;51.468;7.146;2023-02-01T18:18:41;0.80;;;0.80;;
53313;SDS011;39202;51.468;7.146;2023-02-01T18:23:43;0.70;;;0.70;;
53313;SDS011;39202;51.468;7.146;2023-02-01T18:28:46;0.80;;;0.80;;
53313;SDS011;39202;51.468;7.146;2023-02-01T18:33:48;0.77;;;0.77;;
53313;SDS011;39202;51.468;7.146;2023-02-01T18:38:50;0.70;;;0.70;;
53313;SDS011;39202;51.468;7.146;2023-02-01T18:43:54;1.15;;;1.00;;
53313;SDS011;39202;51.468;7.146;2023-02-01T18:48:56;1.25;;;1.00;;
53313;SDS011;39202;51.468;7.146;2023-02-01T18:53:58;0.70;;;0.70;;
53313;SDS011;39202;51.468;7.146;2023-02-01T18:59:01;0.80;;;0.75;;
53313;SDS011;39202;51.468;7.146;2023-02-01T19:04:03;0.80;;;0.80;;
53313;SDS011;39202;51.468;7.146;2023-02-01T19:09:04;0.80;;;0.70;;
53313;SDS011;39202;51.468;7.146;2023-02-01T19:14:08;1.60;;;0.80;;
53313;SDS011;39202;51.468;7.146;2023-02-01T19:19:09;0.95;;;0.85;;
53313;SDS011;39202;51.468;7.146;2023-02-01T19:24:11;1.02;;;0.90;;
53313;SDS011;39202;51.468;7.146;2023-02-01T19:29:14;0.90;;;0.75;;
53313;SDS011;39202;51.468;7.146;2023-02-01T19:34:16;0.70;;;0.70;;
53313;SDS011;39202;51.468;7.146;2023-02-01T19:39:18;0.70;;;0.70;;
53313;SDS011;39202;51.468;7.146;2023-02-01T19:44:22;0.95;;;0.80;;
53313;SDS011;39202;51.468;7.146;2023-02-01T19:49:24;1.05;;;0.80;;
53313;SDS011;39202;51.468;7.146;2023-02-01T19:54:25;0.70;;;0.70;;
53313;SDS011;39202;51.468;7.146;2023-02-01T19:59:29;0.80;;;0.80;;
53313;SDS011;39202;51.468;7.146;2023-02-01T20:04:31;0.80;;;0.80;;
53313;SDS011;39202;51.468;7.146;2023-02-01T20:09:32;0.70;;;0.70;;
53313;SDS011;39202;51.468;7.146;2023-02-01T20:14:38;0.68;;;0.68;;
53313;SDS011;39202;51.468;7.146;2023-02-01T20:19:39;1.00;;;0.80;;
53313;SDS011;39202;51.468;7.146;2023-02-01T20:24:41;1.00;;;0.90;;
53313;SDS011;39202;51.468;7.146;2023-02-01T20:29:44;0.75;;;0.75;;
53313;SDS011;39202;51.468;7.146;2023-02-01T20:34:46;1.38;;;0.82;;
53313;SDS011;39202;51.468;7.146;2023-02-01T20:39:52;0.80;;;0.80;;
53313;SDS011;39202;51.468;7.146;2023-02-01T20:44:55;0.90;;;0.90;;
53313;SDS011;39202;51.468;7.146;2023-02-01T20:49:57;0.60;;;0.60;;
53313;SDS011;39202;51.468;7.146;2023-02-01T20:54:59;0.85;;;0.73;;
53313;SDS011;39202;51.468;7.146;2023-02-01T21:00:02;1.13;;;0.90;;
53313;SDS011;39202;51.468;7.146;2023-02-01T21:05:07;0.70;;;0.70;;
53313;SDS011;39202;51.468;7.146;2023-02-01T21:10:10;0.95;;;0.90;;
53313;SDS011;39202;51.468;7.146;2023-02-01T21:15:13;0.63;;;0.63;;
53313;SDS011;39202;51.468;7.146;2023-02-01T21:20:14;0.50;;;0.50;;
53313;SDS011;39202;51.468;7.146;2023-02-01T21:25:17;0.57;;;0.57;;
53313;SDS011;39202;51.468;7.146;2023-02-01T21:30:20;0.70;;;0.70;;
53313;SDS011;39202;51.468;7.146;2023-02-01T21:35:22;0.60;;;0.60;;
53313;SDS011;39202;51.468;7.146;2023-02-01T21:40:24;0.60;;;0.60;;
53313;SDS011;39202;51.468;7.146;2023-02-01T21:45:27;0.68;;;0.68;;
53313;SDS011;39202;51.468;7.146;2023-02-01T21:50:29;0.70;;;0.70;;
53313;SDS011;39202;51.468;7.146;2023-02-01T21:55:30;0.75;;;0.63;;
53313;SDS011;39202;51.468;7.146;2023-02-01T22:00:33;0.60;;;0.60;;
53313;SDS011;39202;51.468;7.146;2023-02-01T22:05:35;0.70;;;0.70;;
53313;SDS011;39202;51.468;7.146;2023-02-01T22:10:37;0.68;;;0.60;;
53313;SDS011;39202;51.468;7.146;2023-02-01T22:15:40;0.60;;;0.60;;
53313;SDS011;39202;51.468;7.146;2023-02-01T22:20:42;0.70;;;0.70;;
53313;SDS011;39202;51.468;7.146;2023-02-01T22:25:43;0.50;;;0.50;;
53313;SDS011;39202;51.468;7.146;2023-02-01T22:30:46;0.50;;;0.50;;
53313;SDS011;39202;51.468;7.146;2023-02-01T22:35:48;0.60;;;0.60;;
53313;SDS011;39202;51.468;7.146;2023-02-01T22:40:52;0.63;;;0.63;;
53313;SDS011;39202;51.468;7.146;2023-02-01T22:45:58;0.60;;;0.60;;
53313;SDS011;39202;51.468;7.146;2023-02-01T22:51:01;0.68;;;0.60;;
53313;SDS011;39202;51.468;7.146;2023-02-01T22:56:04;0.57;;;0.57;;
53313;SDS011;39202;51.468;7.146;2023-02-01T23:01:08;0.50;;;0.50;;
53313;SDS011;39202;51.468;7.146;2023-02-01T23:06:11;0.60;;;0.60;;
53313;SDS011;39202;51.468;7.146;2023-02-01T23:11:17;0.70;;;0.70;;
53313;SDS011;39202;51.468;7.146;2023-02-01T23:16:20;0.60;;;0.60;;
53313;SDS011;39202;51.468;7.146;2023-02-01T23:21:22;0.55;;;0.55;;
53313;SDS011;39202;51.468;7.146;2023-02-01T23:26:24;0.52;;;0.52;;
53313;SDS011;39202;51.468;7.146;2023-02-01T23:31:30;0.70;;;0.70;;
53313;SDS011;39202;51.468;7.146;2023-02-01T23:36:33;0.50;;;0.50;;
53313;SDS011;39202;51.468;7.146;2023-02-01T23:41:34;0.60;;;0.60;;
53313;SDS011;39202;51.468;7.146;2023-02-01T23:46:38;0.50;;;0.50;;
53313;SDS011;39202;51.468;7.146;2023-02-01T23:51:43;0.52;;;0.52;;
53313;SDS011;39202;51.468;7.146;2023-02-01T23:56:46;0.60;;;0.60;;
